D/T METAR WX W/DIR W/SPE G/SPE TEMP DEWP
7/06/20 10:50 EGFF 070950Z AUTO 30007KT 250V340 9999 BKN026 16/08 Q1009 WNW (300°) 8.1mph 16°C 8°C
7/06/20 10:20 EGFF 070920Z AUTO 30007KT 260V350 9999 BKN022 15/09 Q1009 WNW (300°) 8.1mph 15°C 9°C
7/06/20 09:50 EGFF 070850Z AUTO 29006KT 9999 BKN022 14/09 Q1009 WNW (290°) 6.9mph 14°C 9°C
7/06/20 09:20 EGFF 070820Z AUTO 25005KT 190V290 9999 FEW020 14/09 Q1009 WSW (250°) 5.8mph 14°C 9°C
7/06/20 08:50 EGFF 070750Z AUTO VRB03KT 9999 NCD 13/09 Q1009 N (0°) 3.5mph 13°C 9°C
7/06/20 08:20 EGFF 070720Z AUTO 31004KT 9999 NCD 12/10 Q1008 NW (310°) 4.6mph 12°C 10°C
7/06/20 07:20 EGFF 070620Z AUTO 30006KT 9999 NCD 10/10 Q1008 WNW (300°) 6.9mph 10°C 10°C
7/06/20 06:50 EGFF 070550Z AUTO 32007KT 9999 NCD 09/09 Q1007 NW (320°) 8.1mph 9°C 9°C
7/06/20 06:20 EGFF 070520Z AUTO 32006KT 9999 NCD 08/08 Q1007 NW (320°) 6.9mph 8°C 8°C
7/06/20 05:50 EGFF 070450Z AUTO 32004KT 7000 NCD 08/08 Q1006 NW (320°) 4.6mph 8°C 8°C
7/06/20 05:20 EGFF 070420Z AUTO 31005KT 6000 NCD 08/08 Q1006 NW (310°) 5.8mph 8°C 8°C
7/06/20 04:50 EGFF 070350Z AUTO 30006KT 9999 NCD 08/08 Q1006 WNW (300°) 6.9mph 8°C 8°C
7/06/20 04:20 EGFF 070320Z AUTO 30006KT 9000 NCD 07/07 Q1006 WNW (300°) 6.9mph 7°C 7°C
7/06/20 03:20 EGFF 070220Z AUTO 29007KT 9999 NCD 08/08 Q1006 WNW (290°) 8.1mph 8°C 8°C
7/06/20 02:50 EGFF 070150Z AUTO 29007KT 6000 NCD 08/08 Q1006 WNW (290°) 8.1mph 8°C 8°C
7/06/20 02:20 EGFF 070120Z AUTO 29006KT 9999 NCD 08/08 Q1006 WNW (290°) 6.9mph 8°C 8°C
7/06/20 01:20 EGFF 070020Z AUTO 29007KT 9999 NCD 08/08 Q1005 WNW (290°) 8.1mph 8°C 8°C
7/06/20 00:50 EGFF 062350Z AUTO 30009KT 9999 NCD 09/09 Q1005 WNW (300°) 10.4mph 9°C 9°C
7/06/20 00:20 EGFF 062320Z AUTO 30010KT 9999 NCD 09/08 Q1005 WNW (300°) 11.5mph 9°C 8°C
6/06/20 23:50 EGFF 062250Z AUTO 32008KT 9999 NCD 09/08 Q1005 NW (320°) 9.2mph 9°C 8°C
6/06/20 23:20 EGFF 062220Z AUTO 31009KT 9999 NCD 10/09 Q1005 NW (310°) 10.4mph 10°C 9°C
6/06/20 22:50 EGFF 062150Z AUTO 31012KT 9999 NCD 10/09 Q1004 NW (310°) 13.8mph 10°C 9°C
6/06/20 22:20 EGFF 062120Z AUTO 31009KT 9999 NCD 10/09 Q1004 NW (310°) 10.4mph 10°C 9°C
6/06/20 21:50 EGFF 062050Z AUTO 30009KT 9999 NCD 11/09 Q1004 WNW (300°) 10.4mph 11°C 9°C
6/06/20 21:20 EGFF 062020Z AUTO 30012KT 9999 NCD 11/09 Q1004 WNW (300°) 13.8mph 11°C 9°C
6/06/20 20:50 EGFF 061950Z AUTO 29014KT 9999 NCD 11/09 Q1003 WNW (290°) 16.1mph 11°C 9°C
6/06/20 20:20 EGFF 061920Z AUTO 29013KT 9999 NCD 11/09 Q1003 WNW (290°) 15.0mph 11°C 9°C
6/06/20 19:50 EGFF 061850Z AUTO 29014KT 9999 SCT011 SCT018 BKN046 11/10 Q1003 WNW (290°) 16.1mph 11°C 10°C
6/06/20 19:20 EGFF 061820Z AUTO 30018KT 9999 SCT011 BKN016 BKN024 12/09 Q1003 WNW (300°) 20.7mph 12°C 9°C
6/06/20 18:50 EGFF 061750Z AUTO 30017KT 9999 BKN012 OVC032 12/09 Q1002 WNW (300°) 19.6mph 12°C 9°C
6/06/20 18:20 EGFF 061720Z AUTO 30018KT 9999 BKN015 BKN023 OVC035 12/09 Q1002 WNW (300°) 20.7mph 12°C 9°C
6/06/20 17:50 EGFF 061650Z AUTO 30019KT 9999 SCT016 BKN025 OVC042 12/09 Q1002 WNW (300°) 21.9mph 12°C 9°C
6/06/20 17:20 EGFF 061620Z AUTO 30018KT 9999 BKN018 13/09 Q1002 WNW (300°) 20.7mph 13°C 9°C
6/06/20 16:50 EGFF 061550Z AUTO 30021KT 9999 BKN015 OVC027 13/09 Q1001 WNW (300°) 24.2mph 13°C 9°C
6/06/20 16:20 EGFF 061520Z AUTO 30017KT 9999 BKN012 OVC027 12/10 Q1001 WNW (300°) 19.6mph 12°C 10°C
6/06/20 15:50 EGFF 061450Z 30021KT 9999 BKN010 OVC029 12/10 Q1001 RESHRA WNW (300°) 24.2mph 12°C 10°C
6/06/20 15:20 EGFF 061420Z 29018G28KT 4500 SHRA OVC011 12/10 Q1001 SHRA WNW (290°) 20.7mph 32.2mph 12°C 10°C
6/06/20 14:50 EGFF 061350Z AUTO 29019KT 9999 BKN014 OVC019 12/09 Q1001 WNW (290°) 21.9mph 12°C 9°C
6/06/20 14:20 EGFF 061320Z AUTO 29019G29KT 9999 BKN015 OVC026 13/09 Q1001 WNW (290°) 21.9mph 33.4mph 13°C 9°C
6/06/20 13:50 EGFF 061250Z AUTO 28022KT 9999 BKN018 OVC033 13/09 Q1001 W (280°) 25.3mph 13°C 9°C
6/06/20 13:20 EGFF 061220Z AUTO 29021G32KT 9999 OVC017 12/08 Q1001 WNW (290°) 24.2mph 36.8mph 12°C 8°C
6/06/20 12:50 EGFF 061150Z AUTO 28018KT 9999 OVC016 12/08 Q1001 W (280°) 20.7mph 12°C 8°C
6/06/20 12:20 EGFF 061120Z AUTO 29020KT 9999 BKN016 OVC021 11/08 Q1001 WNW (290°) 23.0mph 11°C 8°C
6/06/20 11:50 EGFF 061050Z AUTO 28017KT 9999 BKN016 OVC022 11/07 Q1001 W (280°) 19.6mph 11°C 7°C
6/06/20 11:20 EGFF 061020Z AUTO 29017KT 9999 BKN016 OVC021 10/07 Q1001 WNW (290°) 19.6mph 10°C 7°C
6/06/20 10:50 EGFF 060950Z AUTO 29019G29KT 9999 OVC016 10/07 Q1001 WNW (290°) 21.9mph 33.4mph 10°C 7°C
6/06/20 10:20 EGFF 060920Z AUTO 28017KT 9999 BKN016 OVC023 09/07 Q1001 W (280°) 19.6mph 9°C 7°C
6/06/20 09:50 EGFF 060850Z AUTO 29022KT 9999 OVC019 10/06 Q1001 WNW (290°) 25.3mph 10°C 6°C
6/06/20 09:20 EGFF 060820Z AUTO 28019KT 9999 BKN021 OVC027 10/06 Q1000 W (280°) 21.9mph 10°C 6°C
6/06/20 08:50 EGFF 060750Z AUTO 29020KT 9999 OVC022 10/05 Q1000 WNW (290°) 23.0mph 10°C 5°C
6/06/20 08:20 EGFF 060720Z AUTO 29021KT 9999 BKN022 OVC026 09/05 Q1000 WNW (290°) 24.2mph 9°C 5°C
6/06/20 07:50 EGFF 060650Z AUTO 29020KT 9999 OVC023 09/05 Q1000 WNW (290°) 23.0mph 9°C 5°C
6/06/20 07:20 EGFF 060620Z AUTO 29020KT 9999 BKN025 09/04 Q1001 WNW (290°) 23.0mph 9°C 4°C
6/06/20 06:50 EGFF 060550Z AUTO 29017KT 9999 BKN026 08/04 Q1001 WNW (290°) 19.6mph 8°C 4°C
6/06/20 06:20 EGFF 060520Z AUTO 29015KT 9999 SCT024 08/04 Q1001 WNW (290°) 17.3mph 8°C 4°C
6/06/20 05:50 EGFF 060450Z AUTO 30015G25KT 9999 SCT026 SCT031 07/04 Q1001 WNW (300°) 17.3mph 28.8mph 7°C 4°C
6/06/20 05:20 EGFF 060420Z AUTO 30014KT 9999 SCT025 SCT033 07/04 Q1001 WNW (300°) 16.1mph 7°C 4°C
6/06/20 04:50 EGFF 060350Z AUTO 30015KT 9999 FEW034 07/04 Q1001 WNW (300°) 17.3mph 7°C 4°C
6/06/20 04:20 EGFF 060320Z AUTO 30016KT 9999 NCD 07/04 Q1001 WNW (300°) 18.4mph 7°C 4°C
6/06/20 03:50 EGFF 060250Z AUTO 29016KT 9999 NCD 07/04 Q1001 WNW (290°) 18.4mph 7°C 4°C
6/06/20 03:20 EGFF 060220Z AUTO 29015KT 9999 NCD 07/04 Q1001 WNW (290°) 17.3mph 7°C 4°C
6/06/20 02:50 EGFF 060150Z AUTO 29013KT 9999 FEW028 07/04 Q1001 WNW (290°) 15.0mph 7°C 4°C
6/06/20 02:20 EGFF 060120Z AUTO 30013KT 9999 FEW032 07/04 Q1001 WNW (300°) 15.0mph 7°C 4°C
6/06/20 01:50 EGFF 060050Z AUTO 29009KT 9999 NCD 06/04 Q1002 WNW (290°) 10.4mph 6°C 4°C
6/06/20 00:50 EGFF 052350Z AUTO 32012KT 9999 NCD 07/04 Q1002 NW (320°) 13.8mph 7°C 4°C
6/06/20 00:20 EGFF 052320Z AUTO 31012KT 9999 FEW025 07/05 Q1001 NW (310°) 13.8mph 7°C 5°C
5/06/20 23:50 EGFF 052250Z AUTO 30011KT 9999 NCD 07/05 Q1001 WNW (300°) 12.7mph 7°C 5°C
5/06/20 23:20 EGFF 052220Z AUTO 32009KT 9999 NCD 07/06 Q1001 NW (320°) 10.4mph 7°C 6°C
5/06/20 22:50 EGFF 052150Z AUTO 31007KT 9999 NCD 08/06 Q1001 NW (310°) 8.1mph 8°C 6°C
5/06/20 22:20 EGFF 052120Z AUTO 31009KT 9999 NCD 08/06 Q1001 NW (310°) 10.4mph 8°C 6°C
5/06/20 21:50 EGFF 052050Z AUTO 29008KT 9999 NCD 08/07 Q1001 WNW (290°) 9.2mph 8°C 7°C
5/06/20 21:20 EGFF 052020Z AUTO 29007KT 9999 NCD 09/07 Q1000 WNW (290°) 8.1mph 9°C 7°C
5/06/20 20:50 EGFF 051950Z AUTO 30008KT 9999 NCD 09/08 Q1000 WNW (300°) 9.2mph 9°C 8°C
5/06/20 20:20 EGFF 051920Z AUTO 30007KT 9999 FEW048 09/08 Q1000 WNW (300°) 8.1mph 9°C 8°C
5/06/20 19:20 EGFF 051820Z 34011KT 300V360 9999 4000S VCSH FEW014CB SCT023 BKN036 09/08 Q1001 RESHGS RESHRA VCSH SHRA NNW (340°) 12.7mph 9°C 8°C
5/06/20 18:50 EGFF 051750Z 29016KT 9999 5000N VCSH BKN044CB 12/07 Q1000 VCSH WNW (290°) 18.4mph 12°C 7°C
5/06/20 18:20 EGFF 051720Z 27016KT 9999 -SHRA SCT025CB 13/07 Q1000 -SHRA W (270°) 18.4mph 13°C 7°C
5/06/20 17:50 EGFF 051650Z AUTO 27015KT 9999 FEW033 14/08 Q1000 W (270°) 17.3mph 14°C 8°C
5/06/20 17:20 EGFF 051620Z AUTO 30016KT 9999 NCD 15/02 Q0999 WNW (300°) 18.4mph 15°C 2°C
5/06/20 16:50 EGFF 051550Z AUTO 30018KT 9999 NCD 16/02 Q0999 WNW (300°) 20.7mph 16°C 2°C
5/06/20 16:20 EGFF 051520Z AUTO 32017KT 9999 NCD 16/02 Q1000 NW (320°) 19.6mph 16°C 2°C
5/06/20 15:50 EGFF 051450Z AUTO 32018G28KT 9999 SCT049 15/03 Q1000 NW (320°) 20.7mph 32.2mph 15°C 3°C
5/06/20 15:20 EGFF 051420Z AUTO 30017KT 9999 SCT048 16/04 Q1000 WNW (300°) 19.6mph 16°C 4°C
5/06/20 14:50 EGFF 051350Z AUTO 29017KT 9999 SCT049 16/03 Q1000 WNW (290°) 19.6mph 16°C 3°C
5/06/20 14:20 EGFF 051320Z AUTO 31018KT 9999 SCT049 16/03 Q0999 NW (310°) 20.7mph 16°C 3°C
5/06/20 13:50 EGFF 051250Z AUTO 32018KT 9999 SCT049 16/04 Q0999 NW (320°) 20.7mph 16°C 4°C
5/06/20 13:20 EGFF 051220Z AUTO 30018G28KT 9999 FEW047 17/04 Q0999 WNW (300°) 20.7mph 32.2mph 17°C 4°C
5/06/20 12:50 EGFF 051150Z AUTO 29015KT 250V320 9999 FEW034 BKN041 15/07 Q0999 WNW (290°) 17.3mph 15°C 7°C
5/06/20 12:20 EGFF 051120Z AUTO 30016KT 9999 SCT034 BKN047 14/06 Q0999 WNW (300°) 18.4mph 14°C 6°C
5/06/20 11:50 EGFF 051050Z AUTO 31015KT 9999 FEW026 BKN030 BKN041 14/07 Q0999 NW (310°) 17.3mph 14°C 7°C
5/06/20 11:20 EGFF 051020Z AUTO 30017KT 9999 BKN047 14/07 Q0999 WNW (300°) 19.6mph 14°C 7°C
5/06/20 10:50 EGFF 050950Z AUTO 32014KT 290V350 9999 BKN036 BKN043 13/06 Q0999 NW (320°) 16.1mph 13°C 6°C
5/06/20 10:20 EGFF 050920Z AUTO 31015KT 9999 BKN036 BKN044 14/06 Q0999 NW (310°) 17.3mph 14°C 6°C
5/06/20 09:50 EGFF 050850Z AUTO 30016KT 9999 SCT043 14/06 Q0999 WNW (300°) 18.4mph 14°C 6°C
5/06/20 09:20 EGFF 050820Z AUTO 30014KT 9999 BKN031 BKN046 12/06 Q0999 WNW (300°) 16.1mph 12°C 6°C
5/06/20 08:50 EGFF 050750Z AUTO 29015KT 9999 SCT028 BKN033 BKN040 12/07 Q0999 WNW (290°) 17.3mph 12°C 7°C